sensor_id;sensor_type;location;lat;lon;timestamp;temperature;humidity
43627;DHT22;29217;52.586;13.442;2022-08-25T00:00:06;18.90;99.90
43627;DHT22;29217;52.586;13.442;2022-08-25T00:02:32;18.90;99.90
43627;DHT22;29217;52.586;13.442;2022-08-25T00:04:57;18.90;99.90
43627;DHT22;29217;52.586;13.442;2022-08-25T00:07:23;18.90;99.90
43627;DHT22;29217;52.586;13.442;2022-08-25T00:09:48;19.00;99.90
43627;DHT22;29217;52.586;13.442;2022-08-25T00:12:14;18.90;99.90
43627;DHT22;29217;52.586;13.442;2022-08-25T00:14:40;19.00;99.90
43627;DHT22;29217;52.586;13.442;2022-08-25T00:17:07;18.90;99.90
43627;DHT22;29217;52.586;13.442;2022-08-25T00:19:35;18.80;99.90
43627;DHT22;29217;52.586;13.442;2022-08-25T00:22:02;18.90;99.90
43627;DHT22;29217;52.586;13.442;2022-08-25T00:24:27;18.80;99.90
43627;DHT22;29217;52.586;13.442;2022-08-25T00:26:56;18.70;99.90
43627;DHT22;29217;52.586;13.442;2022-08-25T00:29:23;18.60;99.90
43627;DHT22;29217;52.586;13.442;2022-08-25T00:31:53;18.70;99.90
43627;DHT22;29217;52.586;13.442;2022-08-25T00:34:22;18.60;99.90
43627;DHT22;29217;52.586;13.442;2022-08-25T00:36:48;18.70;99.90
43627;DHT22;29217;52.586;13.442;2022-08-25T00:39:16;18.50;99.90
43627;DHT22;29217;52.586;13.442;2022-08-25T00:41:43;18.60;99.90
43627;DHT22;29217;52.586;13.442;2022-08-25T00:44:11;18.60;99.90
43627;DHT22;29217;52.586;13.442;2022-08-25T00:46:57;18.60;99.90
43627;DHT22;29217;52.586;13.442;2022-08-25T00:52:32;18.70;99.90
43627;DHT22;29217;52.586;13.442;2022-08-25T00:55:10;18.60;99.90
43627;DHT22;29217;52.586;13.442;2022-08-25T00:58:01;18.70;99.90
43627;DHT22;29217;52.586;13.442;2022-08-25T01:00:31;18.70;99.90
43627;DHT22;29217;52.586;13.442;2022-08-25T01:02:58;18.70;99.90
43627;DHT22;29217;52.586;13.442;2022-08-25T01:05:25;18.70;99.90
43627;DHT22;29217;52.586;13.442;2022-08-25T01:07:51;18.70;99.90
43627;DHT22;29217;52.586;13.442;2022-08-25T01:10:21;18.70;99.90
43627;DHT22;29217;52.586;13.442;2022-08-25T01:12:46;18.70;99.90
43627;DHT22;29217;52.586;13.442;2022-08-25T01:15:13;18.70;99.90
43627;DHT22;29217;52.586;13.442;2022-08-25T01:17:51;18.70;99.90
43627;DHT22;29217;52.586;13.442;2022-08-25T01:20:19;18.60;99.90
43627;DHT22;29217;52.586;13.442;2022-08-25T01:22:45;18.70;99.90
43627;DHT22;29217;52.586;13.442;2022-08-25T01:25:47;18.70;99.90
43627;DHT22;29217;52.586;13.442;2022-08-25T01:28:16;18.60;99.90
43627;DHT22;29217;52.586;13.442;2022-08-25T01:30:42;18.50;99.90
43627;DHT22;29217;52.586;13.442;2022-08-25T01:33:09;18.40;99.90
43627;DHT22;29217;52.586;13.442;2022-08-25T01:35:36;18.40;99.90
43627;DHT22;29217;52.586;13.442;2022-08-25T01:38:06;18.40;99.90
43627;DHT22;29217;52.586;13.442;2022-08-25T01:40:32;18.50;99.90
43627;DHT22;29217;52.586;13.442;2022-08-25T01:45:37;18.50;99.90
43627;DHT22;29217;52.586;13.442;2022-08-25T01:48:03;18.50;99.90
43627;DHT22;29217;52.586;13.442;2022-08-25T01:50:30;18.40;99.90
43627;DHT22;29217;52.586;13.442;2022-08-25T01:55:28;18.40;99.90
43627;DHT22;29217;52.586;13.442;2022-08-25T01:57:54;18.30;99.90
43627;DHT22;29217;52.586;13.442;2022-08-25T02:00:22;18.30;99.90
43627;DHT22;29217;52.586;13.442;2022-08-25T02:02:48;18.30;99.90
43627;DHT22;29217;52.586;13.442;2022-08-25T02:05:14;18.10;99.90
43627;DHT22;29217;52.586;13.442;2022-08-25T02:07:43;18.10;99.90
43627;DHT22;29217;52.586;13.442;2022-08-25T02:10:11;18.10;99.90
43627;DHT22;29217;52.586;13.442;2022-08-25T02:12:37;18.20;99.90
43627;DHT22;29217;52.586;13.442;2022-08-25T02:15:05;18.20;99.90
43627;DHT22;29217;52.586;13.442;2022-08-25T02:17:33;18.30;99.90
43627;DHT22;29217;52.586;13.442;2022-08-25T02:20:01;18.30;99.90
43627;DHT22;29217;52.586;13.442;2022-08-25T02:22:27;18.20;99.90
43627;DHT22;29217;52.586;13.442;2022-08-25T02:24:53;18.10;99.90
43627;DHT22;29217;52.586;13.442;2022-08-25T02:27:18;18.00;99.90
43627;DHT22;29217;52.586;13.442;2022-08-25T02:29:44;18.10;99.90
43627;DHT22;29217;52.586;13.442;2022-08-25T02:32:09;18.10;99.90
43627;DHT22;29217;52.586;13.442;2022-08-25T02:34:35;18.00;99.90
43627;DHT22;29217;52.586;13.442;2022-08-25T02:37:00;17.90;99.90
43627;DHT22;29217;52.586;13.442;2022-08-25T02:39:27;18.00;99.90
43627;DHT22;29217;52.586;13.442;2022-08-25T02:41:52;18.00;99.90
43627;DHT22;29217;52.586;13.442;2022-08-25T02:44:18;18.00;99.90
43627;DHT22;29217;52.586;13.442;2022-08-25T02:46:44;18.10;99.90
43627;DHT22;29217;52.586;13.442;2022-08-25T02:49:09;18.10;99.90
43627;DHT22;29217;52.586;13.442;2022-08-25T02:51:35;18.10;99.90
43627;DHT22;29217;52.586;13.442;2022-08-25T02:54:02;18.10;99.90
43627;DHT22;29217;52.586;13.442;2022-08-25T02:56:29;18.10;99.90
43627;DHT22;29217;52.586;13.442;2022-08-25T02:58:55;18.00;99.90
43627;DHT22;29217;52.586;13.442;2022-08-25T03:01:21;18.00;99.90
43627;DHT22;29217;52.586;13.442;2022-08-25T03:03:47;18.00;99.90
43627;DHT22;29217;52.586;13.442;2022-08-25T03:06:16;18.00;99.90
43627;DHT22;29217;52.586;13.442;2022-08-25T03:08:42;18.10;99.90
43627;DHT22;29217;52.586;13.442;2022-08-25T03:11:08;18.10;99.90
43627;DHT22;29217;52.586;13.442;2022-08-25T03:13:34;18.10;99.90
43627;DHT22;29217;52.586;13.442;2022-08-25T03:16:01;18.00;99.90
43627;DHT22;29217;52.586;13.442;2022-08-25T03:18:28;17.90;99.90
43627;DHT22;29217;52.586;13.442;2022-08-25T03:20:53;17.90;99.90
43627;DHT22;29217;52.586;13.442;2022-08-25T03:23:19;17.90;99.90
43627;DHT22;29217;52.586;13.442;2022-08-25T03:25:45;17.90;99.90
43627;DHT22;29217;52.586;13.442;2022-08-25T03:28:29;17.90;99.90
43627;DHT22;29217;52.586;13.442;2022-08-25T03:30:58;17.90;99.90
43627;DHT22;29217;52.586;13.442;2022-08-25T03:33:28;17.90;99.90
43627;DHT22;29217;52.586;13.442;2022-08-25T03:35:54;17.90;99.90
43627;DHT22;29217;52.586;13.442;2022-08-25T03:38:20;17.90;99.90
43627;DHT22;29217;52.586;13.442;2022-08-25T03:40:47;17.90;99.90
43627;DHT22;29217;52.586;13.442;2022-08-25T03:43:14;17.90;99.90
43627;DHT22;29217;52.586;13.442;2022-08-25T03:45:41;17.90;99.90
43627;DHT22;29217;52.586;13.442;2022-08-25T03:48:07;17.90;99.90
43627;DHT22;29217;52.586;13.442;2022-08-25T03:50:33;17.90;99.90
43627;DHT22;29217;52.586;13.442;2022-08-25T03:52:59;17.80;99.90
43627;DHT22;29217;52.586;13.442;2022-08-25T03:55:25;17.90;99.90
43627;DHT22;29217;52.586;13.442;2022-08-25T03:57:52;17.90;99.90
43627;DHT22;29217;52.586;13.442;2022-08-25T04:00:20;17.90;99.90
43627;DHT22;29217;52.586;13.442;2022-08-25T04:02:46;18.00;99.90
43627;DHT22;29217;52.586;13.442;2022-08-25T04:05:12;17.90;99.90
43627;DHT22;29217;52.586;13.442;2022-08-25T04:07:38;18.00;99.90
43627;DHT22;29217;52.586;13.442;2022-08-25T04:10:08;18.00;99.90
43627;DHT22;29217;52.586;13.442;2022-08-25T04:12:35;18.10;99.90
43627;DHT22;29217;52.586;13.442;2022-08-25T04:15:01;18.10;99.90
43627;DHT22;29217;52.586;13.442;2022-08-25T04:17:27;18.10;99.90
43627;DHT22;29217;52.586;13.442;2022-08-25T04:19:53;18.10;99.90
43627;DHT22;29217;52.586;13.442;2022-08-25T04:22:18;18.10;99.90
43627;DHT22;29217;52.586;13.442;2022-08-25T04:24:44;18.20;99.90
43627;DHT22;29217;52.586;13.442;2022-08-25T04:27:09;18.10;99.90
43627;DHT22;29217;52.586;13.442;2022-08-25T04:29:35;18.10;99.90
43627;DHT22;29217;52.586;13.442;2022-08-25T04:32:00;18.20;99.90
43627;DHT22;29217;52.586;13.442;2022-08-25T04:34:27;18.20;99.90
43627;DHT22;29217;52.586;13.442;2022-08-25T04:36:52;18.30;99.90
43627;DHT22;29217;52.586;13.442;2022-08-25T04:39:19;18.30;99.90
43627;DHT22;29217;52.586;13.442;2022-08-25T04:41:46;18.30;99.90
43627;DHT22;29217;52.586;13.442;2022-08-25T04:44:12;18.30;99.90
43627;DHT22;29217;52.586;13.442;2022-08-25T04:46:38;18.30;99.90
43627;DHT22;29217;52.586;13.442;2022-08-25T04:49:04;18.40;99.90
43627;DHT22;29217;52.586;13.442;2022-08-25T04:51:32;18.30;99.90
43627;DHT22;29217;52.586;13.442;2022-08-25T04:54:03;18.30;99.90
43627;DHT22;29217;52.586;13.442;2022-08-25T04:56:30;18.30;99.90
43627;DHT22;29217;52.586;13.442;2022-08-25T04:59:07;18.30;99.90
43627;DHT22;29217;52.586;13.442;2022-08-25T05:01:34;18.40;99.90
43627;DHT22;29217;52.586;13.442;2022-08-25T05:04:03;18.40;99.90
43627;DHT22;29217;52.586;13.442;2022-08-25T05:06:29;18.50;99.90
43627;DHT22;29217;52.586;13.442;2022-08-25T05:08:55;18.50;99.90
43627;DHT22;29217;52.586;13.442;2022-08-25T05:11:21;18.60;99.90
43627;DHT22;29217;52.586;13.442;2022-08-25T05:13:49;18.60;99.90
43627;DHT22;29217;52.586;13.442;2022-08-25T05:16:16;18.70;99.90
43627;DHT22;29217;52.586;13.442;2022-08-25T05:18:42;18.70;99.90
43627;DHT22;29217;52.586;13.442;2022-08-25T05:21:15;18.70;99.90
43627;DHT22;29217;52.586;13.442;2022-08-25T05:23:41;18.80;99.90
43627;DHT22;29217;52.586;13.442;2022-08-25T05:26:10;18.80;99.90
43627;DHT22;29217;52.586;13.442;2022-08-25T05:28:36;18.80;99.90
43627;DHT22;29217;52.586;13.442;2022-08-25T05:31:02;18.80;99.90
43627;DHT22;29217;52.586;13.442;2022-08-25T05:33:29;18.90;99.90
43627;DHT22;29217;52.586;13.442;2022-08-25T05:35:55;18.80;99.90
43627;DHT22;29217;52.586;13.442;2022-08-25T05:38:21;18.90;99.90
43627;DHT22;29217;52.586;13.442;2022-08-25T05:40:47;18.90;99.90
43627;DHT22;29217;52.586;13.442;2022-08-25T05:43:12;18.90;99.90
43627;DHT22;29217;52.586;13.442;2022-08-25T05:45:39;18.90;99.90
43627;DHT22;29217;52.586;13.442;2022-08-25T05:48:05;18.90;99.90
43627;DHT22;29217;52.586;13.442;2022-08-25T05:50:31;18.90;99.90
43627;DHT22;29217;52.586;13.442;2022-08-25T05:52:57;18.90;99.90
43627;DHT22;29217;52.586;13.442;2022-08-25T05:55:22;19.00;99.90
43627;DHT22;29217;52.586;13.442;2022-08-25T05:57:48;19.00;99.90
43627;DHT22;29217;52.586;13.442;2022-08-25T06:00:14;19.00;99.90
43627;DHT22;29217;52.586;13.442;2022-08-25T06:02:40;19.10;99.90
43627;DHT22;29217;52.586;13.442;2022-08-25T06:05:07;19.10;99.90
43627;DHT22;29217;52.586;13.442;2022-08-25T06:07:33;19.10;99.90
43627;DHT22;29217;52.586;13.442;2022-08-25T06:10:01;19.10;99.90
43627;DHT22;29217;52.586;13.442;2022-08-25T06:12:27;19.10;99.90
43627;DHT22;29217;52.586;13.442;2022-08-25T06:14:55;19.10;99.90
43627;DHT22;29217;52.586;13.442;2022-08-25T06:17:20;19.10;99.90
43627;DHT22;29217;52.586;13.442;2022-08-25T06:19:46;19.10;99.90
43627;DHT22;29217;52.586;13.442;2022-08-25T06:22:12;19.10;99.90
43627;DHT22;29217;52.586;13.442;2022-08-25T06:24:37;19.20;99.90
43627;DHT22;29217;52.586;13.442;2022-08-25T06:27:03;19.20;99.90
43627;DHT22;29217;52.586;13.442;2022-08-25T06:29:29;19.20;99.90
43627;DHT22;29217;52.586;13.442;2022-08-25T06:31:54;19.20;99.90
43627;DHT22;29217;52.586;13.442;2022-08-25T06:34:20;19.30;99.90
43627;DHT22;29217;52.586;13.442;2022-08-25T06:36:46;19.30;99.90
43627;DHT22;29217;52.586;13.442;2022-08-25T06:39:12;19.30;99.90
43627;DHT22;29217;52.586;13.442;2022-08-25T06:41:37;19.30;99.90
43627;DHT22;29217;52.586;13.442;2022-08-25T06:44:03;19.30;99.90
43627;DHT22;29217;52.586;13.442;2022-08-25T06:46:29;19.40;99.90
43627;DHT22;29217;52.586;13.442;2022-08-25T06:48:56;19.40;99.90
43627;DHT22;29217;52.586;13.442;2022-08-25T06:51:23;19.40;99.90
43627;DHT22;29217;52.586;13.442;2022-08-25T06:53:49;19.50;99.90
43627;DHT22;29217;52.586;13.442;2022-08-25T06:56:16;19.50;99.90
43627;DHT22;29217;52.586;13.442;2022-08-25T06:58:42;19.60;99.90
43627;DHT22;29217;52.586;13.442;2022-08-25T07:01:09;19.70;99.90
43627;DHT22;29217;52.586;13.442;2022-08-25T07:03:34;19.80;99.90
43627;DHT22;29217;52.586;13.442;2022-08-25T07:06:00;19.80;99.90
43627;DHT22;29217;52.586;13.442;2022-08-25T07:08:26;19.80;99.90
43627;DHT22;29217;52.586;13.442;2022-08-25T07:10:51;19.90;99.90
43627;DHT22;29217;52.586;13.442;2022-08-25T07:13:17;19.90;99.90
43627;DHT22;29217;52.586;13.442;2022-08-25T07:15:42;19.90;99.90
43627;DHT22;29217;52.586;13.442;2022-08-25T07:18:09;20.00;99.90
43627;DHT22;29217;52.586;13.442;2022-08-25T07:20:36;20.00;99.90
43627;DHT22;29217;52.586;13.442;2022-08-25T07:23:03;20.00;99.90
43627;DHT22;29217;52.586;13.442;2022-08-25T07:25:29;20.10;99.90
43627;DHT22;29217;52.586;13.442;2022-08-25T07:27:54;20.10;99.90
43627;DHT22;29217;52.586;13.442;2022-08-25T07:30:20;20.20;99.90
43627;DHT22;29217;52.586;13.442;2022-08-25T07:32:46;20.30;99.90
43627;DHT22;29217;52.586;13.442;2022-08-25T07:35:12;20.30;99.90
43627;DHT22;29217;52.586;13.442;2022-08-25T07:37:44;20.40;99.90
43627;DHT22;29217;52.586;13.442;2022-08-25T07:40:19;20.40;99.90
43627;DHT22;29217;52.586;13.442;2022-08-25T07:42:47;20.50;99.90
43627;DHT22;29217;52.586;13.442;2022-08-25T07:45:14;20.60;99.90
43627;DHT22;29217;52.586;13.442;2022-08-25T07:47:40;20.70;99.90
43627;DHT22;29217;52.586;13.442;2022-08-25T07:50:07;20.70;99.90
43627;DHT22;29217;52.586;13.442;2022-08-25T07:52:33;20.70;99.90
43627;DHT22;29217;52.586;13.442;2022-08-25T07:54:59;20.70;99.90
43627;DHT22;29217;52.586;13.442;2022-08-25T07:57:25;20.80;99.90
43627;DHT22;29217;52.586;13.442;2022-08-25T07:59:52;20.90;99.90
43627;DHT22;29217;52.586;13.442;2022-08-25T08:02:17;20.90;99.90
43627;DHT22;29217;52.586;13.442;2022-08-25T08:04:43;20.90;99.90
43627;DHT22;29217;52.586;13.442;2022-08-25T08:07:09;20.90;99.90
43627;DHT22;29217;52.586;13.442;2022-08-25T08:09:36;21.00;99.90
43627;DHT22;29217;52.586;13.442;2022-08-25T08:12:02;21.00;99.90
43627;DHT22;29217;52.586;13.442;2022-08-25T08:14:28;21.10;99.90
43627;DHT22;29217;52.586;13.442;2022-08-25T08:16:53;21.10;99.90
43627;DHT22;29217;52.586;13.442;2022-08-25T08:19:19;21.20;99.90
43627;DHT22;29217;52.586;13.442;2022-08-25T08:21:46;21.30;99.90
43627;DHT22;29217;52.586;13.442;2022-08-25T08:24:13;21.40;99.90
43627;DHT22;29217;52.586;13.442;2022-08-25T08:26:38;21.60;99.90
43627;DHT22;29217;52.586;13.442;2022-08-25T08:29:04;21.80;99.90
43627;DHT22;29217;52.586;13.442;2022-08-25T08:31:29;21.90;99.90
43627;DHT22;29217;52.586;13.442;2022-08-25T08:33:55;22.00;99.90
43627;DHT22;29217;52.586;13.442;2022-08-25T08:36:22;21.90;99.90
43627;DHT22;29217;52.586;13.442;2022-08-25T08:38:48;21.90;99.90
43627;DHT22;29217;52.586;13.442;2022-08-25T08:41:34;21.90;99.90
43627;DHT22;29217;52.586;13.442;2022-08-25T08:52:39;22.20;99.90
43627;DHT22;29217;52.586;13.442;2022-08-25T08:55:14;22.30;99.90
43627;DHT22;29217;52.586;13.442;2022-08-25T08:57:47;22.50;99.90
43627;DHT22;29217;52.586;13.442;2022-08-25T09:00:14;22.60;99.90
43627;DHT22;29217;52.586;13.442;2022-08-25T09:03:05;22.70;99.90
43627;DHT22;29217;52.586;13.442;2022-08-25T09:05:38;22.80;99.90
43627;DHT22;29217;52.586;13.442;2022-08-25T09:08:11;22.70;99.90
43627;DHT22;29217;52.586;13.442;2022-08-25T09:13:54;23.00;99.90
43627;DHT22;29217;52.586;13.442;2022-08-25T09:16:31;23.10;99.90
43627;DHT22;29217;52.586;13.442;2022-08-25T09:28:46;23.10;99.90
43627;DHT22;29217;52.586;13.442;2022-08-25T09:30:52;23.10;99.90
43627;DHT22;29217;52.586;13.442;2022-08-25T09:33:22;23.00;99.90
43627;DHT22;29217;52.586;13.442;2022-08-25T09:35:50;23.00;99.90
43627;DHT22;29217;52.586;13.442;2022-08-25T09:38:16;23.00;99.90
43627;DHT22;29217;52.586;13.442;2022-08-25T09:40:47;23.00;99.90
43627;DHT22;29217;52.586;13.442;2022-08-25T09:43:41;23.00;99.90
43627;DHT22;29217;52.586;13.442;2022-08-25T09:53:47;23.10;99.90
43627;DHT22;29217;52.586;13.442;2022-08-25T09:56:13;23.10;99.90
43627;DHT22;29217;52.586;13.442;2022-08-25T09:58:39;23.30;99.90
43627;DHT22;29217;52.586;13.442;2022-08-25T10:01:10;23.30;99.90
43627;DHT22;29217;52.586;13.442;2022-08-25T10:03:46;23.30;99.90
43627;DHT22;29217;52.586;13.442;2022-08-25T10:06:17;23.30;99.90
43627;DHT22;29217;52.586;13.442;2022-08-25T10:11:13;23.20;99.90
43627;DHT22;29217;52.586;13.442;2022-08-25T10:13:41;23.20;99.90
43627;DHT22;29217;52.586;13.442;2022-08-25T10:16:28;23.40;99.90
43627;DHT22;29217;52.586;13.442;2022-08-25T10:19:23;23.60;99.90
43627;DHT22;29217;52.586;13.442;2022-08-25T10:24:27;24.00;99.90
43627;DHT22;29217;52.586;13.442;2022-08-25T10:27:17;24.20;99.90
43627;DHT22;29217;52.586;13.442;2022-08-25T10:38:43;24.50;99.90
43627;DHT22;29217;52.586;13.442;2022-08-25T10:47:57;24.80;99.90
43627;DHT22;29217;52.586;13.442;2022-08-25T10:50:39;24.90;99.90
43627;DHT22;29217;52.586;13.442;2022-08-25T10:53:33;25.10;99.90
43627;DHT22;29217;52.586;13.442;2022-08-25T10:56:14;25.30;99.90
43627;DHT22;29217;52.586;13.442;2022-08-25T10:59:06;25.40;99.90
43627;DHT22;29217;52.586;13.442;2022-08-25T11:01:51;25.40;99.90
43627;DHT22;29217;52.586;13.442;2022-08-25T11:04:42;25.30;99.90
43627;DHT22;29217;52.586;13.442;2022-08-25T11:07:21;25.30;99.90
43627;DHT22;29217;52.586;13.442;2022-08-25T11:09:53;25.40;99.90
43627;DHT22;29217;52.586;13.442;2022-08-25T11:12:39;25.70;99.90
43627;DHT22;29217;52.586;13.442;2022-08-25T11:15:20;25.80;99.90
43627;DHT22;29217;52.586;13.442;2022-08-25T11:17:53;25.90;99.90
43627;DHT22;29217;52.586;13.442;2022-08-25T11:20:30;25.80;99.90
43627;DHT22;29217;52.586;13.442;2022-08-25T11:23:26;25.80;99.90
43627;DHT22;29217;52.586;13.442;2022-08-25T11:26:02;26.00;99.90
43627;DHT22;29217;52.586;13.442;2022-08-25T11:28:38;26.20;99.90
43627;DHT22;29217;52.586;13.442;2022-08-25T11:31:08;26.00;99.90
43627;DHT22;29217;52.586;13.442;2022-08-25T11:33:34;25.90;99.90
43627;DHT22;29217;52.586;13.442;2022-08-25T11:44:45;26.00;99.90
43627;DHT22;29217;52.586;13.442;2022-08-25T11:47:36;26.10;99.90
43627;DHT22;29217;52.586;13.442;2022-08-25T11:50:26;26.40;99.90
43627;DHT22;29217;52.586;13.442;2022-08-25T11:52:59;26.40;99.90
43627;DHT22;29217;52.586;13.442;2022-08-25T11:55:46;26.40;99.90
43627;DHT22;29217;52.586;13.442;2022-08-25T12:00:47;27.00;99.90
43627;DHT22;29217;52.586;13.442;2022-08-25T12:16:58;28.60;99.90
43627;DHT22;29217;52.586;13.442;2022-08-25T12:30:31;28.90;99.90
43627;DHT22;29217;52.586;13.442;2022-08-25T12:33:18;28.80;99.90
43627;DHT22;29217;52.586;13.442;2022-08-25T12:35:56;28.60;99.90
43627;DHT22;29217;52.586;13.442;2022-08-25T12:38:47;28.20;99.90
43627;DHT22;29217;52.586;13.442;2022-08-25T12:41:25;28.00;99.90
43627;DHT22;29217;52.586;13.442;2022-08-25T12:43:53;28.10;99.90
43627;DHT22;29217;52.586;13.442;2022-08-25T12:46:36;28.10;99.90
43627;DHT22;29217;52.586;13.442;2022-08-25T12:52:09;27.80;99.90
43627;DHT22;29217;52.586;13.442;2022-08-25T13:00:27;28.20;99.90
43627;DHT22;29217;52.586;13.442;2022-08-25T13:14:23;29.40;99.90
43627;DHT22;29217;52.586;13.442;2022-08-25T13:16:55;29.50;99.90
43627;DHT22;29217;52.586;13.442;2022-08-25T13:19:21;29.50;99.90
43627;DHT22;29217;52.586;13.442;2022-08-25T13:21:47;29.60;99.90
43627;DHT22;29217;52.586;13.442;2022-08-25T13:24:34;29.60;99.90
43627;DHT22;29217;52.586;13.442;2022-08-25T13:27:06;29.60;99.90
43627;DHT22;29217;52.586;13.442;2022-08-25T13:29:35;29.70;99.90
43627;DHT22;29217;52.586;13.442;2022-08-25T13:32:03;29.70;99.90
43627;DHT22;29217;52.586;13.442;2022-08-25T13:34:37;29.70;99.90
43627;DHT22;29217;52.586;13.442;2022-08-25T13:37:15;29.80;99.90
43627;DHT22;29217;52.586;13.442;2022-08-25T13:40:13;29.80;99.90
43627;DHT22;29217;52.586;13.442;2022-08-25T13:42:45;29.90;99.90
43627;DHT22;29217;52.586;13.442;2022-08-25T13:45:17;29.90;99.90
43627;DHT22;29217;52.586;13.442;2022-08-25T13:47:44;29.90;99.90
43627;DHT22;29217;52.586;13.442;2022-08-25T13:52:53;30.40;99.90
43627;DHT22;29217;52.586;13.442;2022-08-25T13:57:57;30.30;99.90
43627;DHT22;29217;52.586;13.442;2022-08-25T14:00:32;30.00;99.90
43627;DHT22;29217;52.586;13.442;2022-08-25T14:03:00;29.70;99.90
43627;DHT22;29217;52.586;13.442;2022-08-25T14:05:37;29.90;99.90
43627;DHT22;29217;52.586;13.442;2022-08-25T14:08:04;30.20;99.90
43627;DHT22;29217;52.586;13.442;2022-08-25T14:10:42;30.40;99.90
43627;DHT22;29217;52.586;13.442;2022-08-25T14:13:14;30.20;99.90
43627;DHT22;29217;52.586;13.442;2022-08-25T14:15:42;30.10;99.90
43627;DHT22;29217;52.586;13.442;2022-08-25T14:20:43;29.50;99.90
43627;DHT22;29217;52.586;13.442;2022-08-25T14:23:12;29.00;99.90
43627;DHT22;29217;52.586;13.442;2022-08-25T14:25:39;28.70;99.90
43627;DHT22;29217;52.586;13.442;2022-08-25T14:28:10;28.40;99.90
43627;DHT22;29217;52.586;13.442;2022-08-25T14:30:41;28.30;99.90
43627;DHT22;29217;52.586;13.442;2022-08-25T14:33:07;28.80;99.90
43627;DHT22;29217;52.586;13.442;2022-08-25T14:35:34;29.10;99.90
43627;DHT22;29217;52.586;13.442;2022-08-25T14:38:09;29.50;99.90
43627;DHT22;29217;52.586;13.442;2022-08-25T14:40:35;29.80;99.90
43627;DHT22;29217;52.586;13.442;2022-08-25T14:43:01;30.10;99.90
43627;DHT22;29217;52.586;13.442;2022-08-25T14:45:26;30.30;99.90
43627;DHT22;29217;52.586;13.442;2022-08-25T14:47:52;30.00;99.90
43627;DHT22;29217;52.586;13.442;2022-08-25T14:50:20;29.50;99.90
43627;DHT22;29217;52.586;13.442;2022-08-25T14:52:46;29.00;99.90
43627;DHT22;29217;52.586;13.442;2022-08-25T14:55:12;28.60;99.90
43627;DHT22;29217;52.586;13.442;2022-08-25T14:57:38;28.20;99.90
43627;DHT22;29217;52.586;13.442;2022-08-25T15:00:04;28.00;99.90
43627;DHT22;29217;52.586;13.442;2022-08-25T15:02:34;27.90;99.90
43627;DHT22;29217;52.586;13.442;2022-08-25T15:05:04;28.10;99.90
43627;DHT22;29217;52.586;13.442;2022-08-25T15:07:32;28.20;99.90
43627;DHT22;29217;52.586;13.442;2022-08-25T15:10:17;28.30;99.90
43627;DHT22;29217;52.586;13.442;2022-08-25T15:12:43;28.30;99.90
43627;DHT22;29217;52.586;13.442;2022-08-25T15:15:09;28.30;99.90
43627;DHT22;29217;52.586;13.442;2022-08-25T15:17:35;28.30;99.90
43627;DHT22;29217;52.586;13.442;2022-08-25T15:20:02;28.20;99.90
43627;DHT22;29217;52.586;13.442;2022-08-25T15:22:28;28.20;99.90
43627;DHT22;29217;52.586;13.442;2022-08-25T15:24:53;28.20;99.90
43627;DHT22;29217;52.586;13.442;2022-08-25T15:27:19;28.10;99.90
43627;DHT22;29217;52.586;13.442;2022-08-25T15:29:47;28.10;99.90
43627;DHT22;29217;52.586;13.442;2022-08-25T15:32:13;28.00;99.90
43627;DHT22;29217;52.586;13.442;2022-08-25T15:34:39;28.00;99.90
43627;DHT22;29217;52.586;13.442;2022-08-25T15:37:13;28.00;99.90
43627;DHT22;29217;52.586;13.442;2022-08-25T15:39:41;28.00;99.90
43627;DHT22;29217;52.586;13.442;2022-08-25T15:42:08;28.00;99.90
43627;DHT22;29217;52.586;13.442;2022-08-25T15:44:34;28.00;99.90
43627;DHT22;29217;52.586;13.442;2022-08-25T15:47:00;27.90;99.90
43627;DHT22;29217;52.586;13.442;2022-08-25T15:49:26;27.70;99.90
43627;DHT22;29217;52.586;13.442;2022-08-25T15:51:52;27.60;99.90
43627;DHT22;29217;52.586;13.442;2022-08-25T15:54:19;27.40;99.90
43627;DHT22;29217;52.586;13.442;2022-08-25T15:56:45;27.30;99.90
43627;DHT22;29217;52.586;13.442;2022-08-25T15:59:11;27.30;99.90
43627;DHT22;29217;52.586;13.442;2022-08-25T16:01:38;27.20;99.90
43627;DHT22;29217;52.586;13.442;2022-08-25T16:04:04;27.20;99.90
43627;DHT22;29217;52.586;13.442;2022-08-25T16:06:29;27.30;99.90
43627;DHT22;29217;52.586;13.442;2022-08-25T16:08:55;27.30;99.90
43627;DHT22;29217;52.586;13.442;2022-08-25T16:11:29;27.30;99.90
43627;DHT22;29217;52.586;13.442;2022-08-25T16:13:55;27.30;99.90
43627;DHT22;29217;52.586;13.442;2022-08-25T16:16:24;27.30;99.90
43627;DHT22;29217;52.586;13.442;2022-08-25T16:18:50;27.30;99.90
43627;DHT22;29217;52.586;13.442;2022-08-25T16:21:19;27.30;99.90
43627;DHT22;29217;52.586;13.442;2022-08-25T16:23:45;27.40;99.90
43627;DHT22;29217;52.586;13.442;2022-08-25T16:26:11;27.40;99.90
43627;DHT22;29217;52.586;13.442;2022-08-25T16:28:39;27.40;99.90
43627;DHT22;29217;52.586;13.442;2022-08-25T16:31:08;27.40;99.90
43627;DHT22;29217;52.586;13.442;2022-08-25T16:33:34;27.50;99.90
43627;DHT22;29217;52.586;13.442;2022-08-25T16:36:08;27.40;99.90
43627;DHT22;29217;52.586;13.442;2022-08-25T16:38:35;27.40;99.90
43627;DHT22;29217;52.586;13.442;2022-08-25T16:41:05;27.40;99.90
43627;DHT22;29217;52.586;13.442;2022-08-25T16:43:30;27.30;99.90
43627;DHT22;29217;52.586;13.442;2022-08-25T16:46:04;27.30;99.90
43627;DHT22;29217;52.586;13.442;2022-08-25T16:48:30;27.30;99.90
43627;DHT22;29217;52.586;13.442;2022-08-25T16:50:56;27.20;99.90
43627;DHT22;29217;52.586;13.442;2022-08-25T16:53:22;27.20;99.90
43627;DHT22;29217;52.586;13.442;2022-08-25T16:56:06;27.10;99.90
43627;DHT22;29217;52.586;13.442;2022-08-25T16:58:32;27.10;99.90
43627;DHT22;29217;52.586;13.442;2022-08-25T17:01:09;27.10;99.90
43627;DHT22;29217;52.586;13.442;2022-08-25T17:03:39;27.00;99.90
43627;DHT22;29217;52.586;13.442;2022-08-25T17:06:05;27.00;99.90
43627;DHT22;29217;52.586;13.442;2022-08-25T17:08:32;27.00;99.90
43627;DHT22;29217;52.586;13.442;2022-08-25T17:11:10;26.80;99.90
43627;DHT22;29217;52.586;13.442;2022-08-25T17:13:37;26.70;99.90
43627;DHT22;29217;52.586;13.442;2022-08-25T17:16:03;26.60;99.90
43627;DHT22;29217;52.586;13.442;2022-08-25T17:18:29;26.60;99.90
43627;DHT22;29217;52.586;13.442;2022-08-25T17:21:01;26.50;99.90
43627;DHT22;29217;52.586;13.442;2022-08-25T17:23:28;26.50;99.90
43627;DHT22;29217;52.586;13.442;2022-08-25T17:25:54;26.40;99.90
43627;DHT22;29217;52.586;13.442;2022-08-25T17:28:20;26.30;99.90